UTDL

Khudzhand Airport

Khudzhand, Tajikistan
METAR UTDL 171030Z 25003MPS 9999 NSC 02/M01 Q1026 R26/19//65 NOSIG RMK QFE731/0975
Observed Flight Rules
Jan-17 @ 10:30 UTC (26 minutes ago) Visual Flight Rules
Wind Visibility Clouds
250° at 6 knots 10,000+ meters
  • Clear skies
Temperatures Readings
Current 2°C / 36°F
Dewpoint -1°C / 30°F
Humidity 81%
Altimeter 30.3" Hg
Pressure 1026 hPa
Elevation 442
METAR UTDL 171030Z 25003MPS 9999 NSC 02/M01 Q1026 R26/19//65 NOSIG RMK QFE731/0975
Observed Flight Rules
Jan-17 @ 10:30 UTC
(26 minutes ago)
VFR
Wind Visibility
250° at 6 knots 10,000+ meters
Clouds
  • Clear skies
Temperature Dewpoint
2°C / 36°F -1°C / 30°F
Humidity Altimeter Pressure
81% 30.3" Hg 1026 hPa